Time;durP1;ratioP1;P1;durP2;ratioP2;P2;SDS_P1;SDS_P2;PMS_P1;PMS_P2;Temp;Humidity;BMP_temperature;BMP_pressure;BME280_temperature;BME280_humidity;BME280_pressure;Samples;Min_cycle;Max_cycle;Signal;HPM_P1;HPM_P2
2023/09/09 00:00:48;;;;;;;13.93;12.45;;;20.80;99.90;;;;;;5073366;28;20025;-66
2023/09/09 00:03:14;;;;;;;13.05;11.80;;;20.80;99.90;;;;;;5073666;28;20031;-67
2023/09/09 00:05:40;;;;;;;15.38;13.38;;;20.80;99.90;;;;;;5073355;28;20020;-66
2023/09/09 00:08:06;;;;;;;15.05;13.15;;;20.80;99.90;;;;;;5073262;28;20039;-66
2023/09/09 00:10:36;;;;;;;19.90;14.32;;;20.80;99.90;;;;;;5073115;28;20024;-67
2023/09/09 00:13:05;;;;;;;15.43;12.88;;;20.80;99.90;;;;;;5073247;28;20433;-67
2023/09/09 00:15:33;;;;;;;13.18;11.73;;;20.80;99.90;;;;;;5073242;28;20020;-67
2023/09/09 00:17:59;;;;;;;18.38;13.38;;;20.70;99.90;;;;;;5073124;28;20021;-67
2023/09/09 00:20:33;;;;;;;15.55;13.88;;;20.70;99.90;;;;;;5073235;28;20028;-67
2023/09/09 00:23:02;;;;;;;16.88;14.05;;;20.70;99.90;;;;;;5073121;28;20486;-67
2023/09/09 00:25:29;;;;;;;17.13;13.60;;;20.60;99.90;;;;;;5054676;28;20028;-66
2023/09/09 00:27:54;;;;;;;14.90;13.23;;;20.60;99.90;;;;;;5055749;28;20024;-66
2023/09/09 00:30:20;;;;;;;13.40;11.93;;;20.60;99.90;;;;;;5054925;28;20020;-66
2023/09/09 00:32:46;;;;;;;16.08;12.98;;;20.50;99.90;;;;;;5072894;28;20031;-66
2023/09/09 00:35:11;;;;;;;16.95;13.40;;;20.50;99.90;;;;;;5054913;28;20111;-66
2023/09/09 00:37:37;;;;;;;16.88;13.43;;;20.50;99.90;;;;;;5072970;28;20457;-66
2023/09/09 00:40:04;;;;;;;14.00;12.52;;;20.40;99.90;;;;;;5072598;28;20028;-66
2023/09/09 00:42:29;;;;;;;17.90;13.02;;;20.40;99.90;;;;;;5055334;28;20501;-66
2023/09/09 00:44:55;;;;;;;16.10;12.50;;;20.40;99.90;;;;;;5072730;28;20033;-66
2023/09/09 00:47:20;;;;;;;13.25;11.85;;;20.30;99.90;;;;;;5072682;28;20024;-66
2023/09/09 00:49:46;;;;;;;15.70;13.00;;;20.30;99.90;;;;;;5072796;28;20484;-66
2023/09/09 00:52:12;;;;;;;14.55;12.38;;;20.30;99.90;;;;;;5071358;28;20043;-66
2023/09/09 00:54:37;;;;;;;17.63;13.13;;;20.20;99.90;;;;;;5067288;28;20038;-68
2023/09/09 00:57:04;;;;;;;13.85;12.45;;;20.20;99.90;;;;;;5093428;28;20511;-67
2023/09/09 00:59:29;;;;;;;15.38;12.07;;;20.20;99.90;;;;;;5074814;28;20500;-67
2023/09/09 01:01:57;;;;;;;14.48;12.98;;;20.20;99.90;;;;;;5093163;28;20111;-67
2023/09/09 01:04:23;;;;;;;14.35;12.85;;;20.30;99.90;;;;;;5094715;28;20027;-70
2023/09/09 01:06:49;;;;;;;14.50;12.05;;;20.20;99.90;;;;;;5079053;28;20024;-67
2023/09/09 01:09:15;;;;;;;;;;;20.20;99.90;;;;;;5098214;28;20089;-66
2023/09/09 01:11:41;;;;;;;13.88;12.00;;;20.20;99.90;;;;;;5079537;28;20310;-67
2023/09/09 01:14:06;;;;;;;13.73;12.32;;;20.20;99.90;;;;;;5097406;28;20085;-68
2023/09/09 01:16:32;;;;;;;13.07;11.68;;;20.10;99.90;;;;;;5097418;28;20023;-67
2023/09/09 01:18:58;;;;;;;13.77;12.38;;;20.10;99.90;;;;;;5078815;28;20378;-67
2023/09/09 01:21:27;;;;;;;14.57;12.80;;;20.10;99.90;;;;;;5096917;28;20020;-66
2023/09/09 01:23:53;;;;;;;13.45;11.90;;;20.00;99.90;;;;;;5090184;28;20154;-66
2023/09/09 01:26:18;;;;;;;16.30;12.77;;;20.00;99.90;;;;;;5076642;28;20458;-67
2023/09/09 01:28:44;;;;;;;14.32;12.32;;;20.00;99.90;;;;;;5059052;28;20036;-67
2023/09/09 01:31:10;;;;;;;15.48;13.10;;;20.00;99.90;;;;;;5058446;28;20052;-67
2023/09/09 01:33:35;;;;;;;15.77;12.63;;;19.90;99.90;;;;;;5076321;28;20056;-67
2023/09/09 01:36:03;;;;;;;16.15;12.65;;;19.90;99.90;;;;;;5076497;28;20490;-67
2023/09/09 01:38:28;;;;;;;16.50;14.32;;;19.90;99.90;;;;;;5076118;28;20475;-67
2023/09/09 01:40:54;;;;;;;14.23;12.68;;;19.90;99.90;;;;;;5075880;28;20074;-67
2023/09/09 01:43:19;;;;;;;16.15;13.45;;;19.80;99.90;;;;;;5076534;28;20524;-68
2023/09/09 01:45:45;;;;;;;16.25;13.65;;;19.80;99.90;;;;;;5076030;28;20419;-68
2023/09/09 01:48:10;;;;;;;15.80;13.50;;;19.80;99.90;;;;;;5058009;28;20032;-67
2023/09/09 01:50:36;;;;;;;16.85;13.68;;;19.80;99.90;;;;;;5076046;28;20024;-67
2023/09/09 01:53:03;;;;;;;15.50;13.88;;;19.80;99.90;;;;;;5057688;28;20498;-67
2023/09/09 01:55:28;;;;;;;17.65;14.35;;;19.70;99.90;;;;;;5075679;28;20058;-67
2023/09/09 01:57:54;;;;;;;16.10;13.93;;;19.70;99.90;;;;;;5057863;28;20131;-67
2023/09/09 02:00:19;;;;;;;16.60;13.88;;;19.60;99.90;;;;;;5076064;28;20029;-67
2023/09/09 02:02:45;;;;;;;15.75;13.52;;;19.60;99.90;;;;;;5075927;28;20028;-67
2023/09/09 02:05:10;;;;;;;15.98;13.90;;;19.60;99.90;;;;;;5075620;28;20032;-68
2023/09/09 02:07:36;;;;;;;13.88;12.38;;;19.60;99.90;;;;;;5076019;28;20024;-68
2023/09/09 02:10:01;;;;;;;15.50;13.85;;;19.50;99.90;;;;;;5075326;28;20114;-68
2023/09/09 02:12:28;;;;;;;17.80;13.30;;;19.50;99.90;;;;;;5075473;28;20044;-68
2023/09/09 02:14:54;;;;;;;16.13;13.38;;;19.50;99.90;;;;;;5075069;28;20021;-68
2023/09/09 02:17:19;;;;;;;15.48;13.45;;;19.50;99.90;;;;;;5074862;28;20028;-67
2023/09/09 02:19:45;;;;;;;14.43;13.00;;;19.50;99.90;;;;;;5075779;28;20029;-68
2023/09/09 02:22:10;;;;;;;15.75;13.48;;;19.50;99.90;;;;;;5075399;28;20099;-67
2023/09/09 02:24:36;;;;;;;15.52;13.05;;;19.60;99.90;;;;;;5075216;28;20052;-67
2023/09/09 02:27:02;;;;;;;16.25;13.00;;;19.60;99.90;;;;;;5075230;28;20031;-67
2023/09/09 02:29:28;;;;;;;14.55;12.80;;;19.60;99.90;;;;;;5074861;28;20054;-67
2023/09/09 02:31:54;;;;;;;15.50;13.35;;;19.60;99.90;;;;;;5073816;28;20020;-67
2023/09/09 02:34:19;;;;;;;15.68;13.45;;;19.60;99.90;;;;;;5074915;28;20028;-67
2023/09/09 02:37:05;;;;;;;13.80;12.38;;;19.50;99.90;;;;;;5057505;28;20453;-67
2023/09/09 02:39:31;;;;;;;17.73;12.85;;;19.60;99.90;;;;;;5074703;28;20032;-67
2023/09/09 02:41:56;;;;;;;16.95;13.23;;;19.50;99.90;;;;;;5074920;28;20033;-66
2023/09/09 02:44:23;;;;;;;14.27;12.80;;;19.50;99.90;;;;;;5075057;28;20403;-66
2023/09/09 02:46:48;;;;;;;15.57;12.77;;;19.50;99.90;;;;;;5074759;28;20021;-66
2023/09/09 02:49:14;;;;;;;13.93;12.45;;;19.50;99.90;;;;;;5074945;28;20031;-66
2023/09/09 02:51:39;;;;;;;15.52;13.10;;;19.50;99.90;;;;;;5056439;28;20036;-67
2023/09/09 02:54:05;;;;;;;14.30;12.80;;;19.50;99.90;;;;;;5061893;23;20479;-59
2023/09/09 02:56:31;;;;;;;14.23;12.63;;;19.50;99.90;;;;;;5054987;28;20078;-59
2023/09/09 02:58:56;;;;;;;17.58;13.48;;;19.50;99.90;;;;;;5055069;28;20028;-59
2023/09/09 03:01:22;;;;;;;18.92;12.82;;;19.50;99.90;;;;;;5055001;28;20414;-59
2023/09/09 03:03:48;;;;;;;19.15;14.00;;;19.50;99.90;;;;;;5054554;28;20028;-60
2023/09/09 03:06:13;;;;;;;14.82;13.32;;;19.50;99.90;;;;;;5054983;28;20044;-59
2023/09/09 03:08:39;;;;;;;17.52;14.63;;;19.60;99.90;;;;;;5054509;28;20021;-60
2023/09/09 03:11:04;;;;;;;16.45;13.90;;;19.50;99.90;;;;;;5054764;28;20051;-58
2023/09/09 03:13:30;;;;;;;15.45;13.85;;;19.50;99.90;;;;;;5054711;28;20163;-60
2023/09/09 03:15:55;;;;;;;15.07;12.68;;;19.40;99.90;;;;;;5054655;28;20036;-60
2023/09/09 03:18:21;;;;;;;13.55;12.05;;;19.40;99.90;;;;;;5054890;28;20464;-60
2023/09/09 03:20:46;;;;;;;16.67;12.60;;;19.30;99.90;;;;;;5055131;28;20029;-59
2023/09/09 03:23:12;;;;;;;14.05;12.63;;;19.20;99.90;;;;;;5054231;28;20028;-61
2023/09/09 03:25:37;;;;;;;15.20;12.30;;;19.20;99.90;;;;;;5074257;28;20028;-60
2023/09/09 03:28:03;;;;;;;15.20;12.90;;;19.10;99.90;;;;;;5074129;28;20028;-60
2023/09/09 03:30:28;;;;;;;15.20;12.57;;;19.10;99.90;;;;;;5074068;28;20032;-60
2023/09/09 03:32:54;;;;;;;14.73;12.35;;;19.00;99.90;;;;;;5074214;28;20436;-58
2023/09/09 03:35:19;;;;;;;14.38;11.80;;;19.00;99.90;;;;;;5074034;28;20138;-60
2023/09/09 03:37:45;;;;;;;16.92;12.63;;;19.00;99.90;;;;;;5056127;28;20013;-60
2023/09/09 03:40:11;;;;;;;15.38;13.57;;;18.90;99.90;;;;;;5073745;28;20028;-60
2023/09/09 03:42:38;;;;;;;15.20;12.68;;;18.80;99.90;;;;;;5074199;28;20030;-60
2023/09/09 03:45:04;;;;;;;15.02;13.02;;;18.80;99.90;;;;;;5073872;28;20024;-60
2023/09/09 03:47:29;;;;;;;15.80;13.68;;;18.80;99.90;;;;;;5074021;28;20021;-60
2023/09/09 03:49:55;;;;;;;17.50;13.15;;;18.70;99.90;;;;;;5073919;28;20068;-59
2023/09/09 03:52:21;;;;;;;17.90;12.73;;;18.70;99.90;;;;;;5056386;28;20470;-60
2023/09/09 03:54:47;;;;;;;14.02;12.52;;;18.70;99.90;;;;;;5059858;28;20039;-60
2023/09/09 03:57:12;;;;;;;16.02;13.10;;;18.70;99.90;;;;;;5054017;28;20078;-60
2023/09/09 03:59:38;;;;;;;13.95;12.35;;;18.70;99.90;;;;;;5053876;28;20364;-60
2023/09/09 04:02:03;;;;;;;17.88;13.90;;;18.60;99.90;;;;;;5054038;28;20032;-60
2023/09/09 04:04:29;;;;;;;13.70;11.98;;;18.70;99.90;;;;;;5035894;28;20029;-60
2023/09/09 04:06:54;;;;;;;13.70;12.18;;;18.60;99.90;;;;;;5070874;28;20032;-60
2023/09/09 04:09:26;;;;;;;15.80;12.68;;;18.60;99.90;;;;;;5073114;28;20058;-60
2023/09/09 04:11:52;;;;;;;14.60;12.82;;;18.70;99.90;;;;;;5073404;28;20493;-60
2023/09/09 04:14:17;;;;;;;15.30;13.18;;;18.70;99.90;;;;;;5074033;28;20020;-60
2023/09/09 04:16:43;;;;;;;16.02;12.63;;;18.60;99.90;;;;;;5073456;28;20020;-60
2023/09/09 04:19:08;;;;;;;15.40;13.38;;;18.50;99.90;;;;;;5073802;28;20013;-60
2023/09/09 04:21:34;;;;;;;14.68;12.88;;;18.40;99.90;;;;;;5073284;28;20032;-60
2023/09/09 04:24:00;;;;;;;16.10;12.55;;;18.30;99.90;;;;;;5066799;28;20033;-60
2023/09/09 04:26:25;;;;;;;15.25;13.23;;;18.20;99.90;;;;;;5054146;28;20037;-60
2023/09/09 04:28:51;;;;;;;16.60;13.05;;;18.10;99.90;;;;;;5053505;28;20029;-60
2023/09/09 04:31:16;;;;;;;14.43;12.93;;;18.20;99.90;;;;;;5035575;28;20075;-59
2023/09/09 04:33:42;;;;;;;14.35;12.13;;;18.20;99.90;;;;;;5035252;28;20375;-60
2023/09/09 04:36:07;;;;;;;16.02;12.00;;;18.20;99.90;;;;;;5053117;28;20475;-59
2023/09/09 04:38:33;;;;;;;13.82;12.38;;;18.20;99.90;;;;;;5052687;28;20025;-60
2023/09/09 04:40:58;;;;;;;14.00;12.27;;;18.20;99.90;;;;;;5052875;28;20037;-60
2023/09/09 04:43:24;;;;;;;16.42;13.23;;;18.20;99.90;;;;;;5052939;28;20500;-60
2023/09/09 04:45:49;;;;;;;14.75;12.65;;;18.20;99.90;;;;;;5053031;28;20033;-60
2023/09/09 04:48:15;;;;;;;15.75;13.40;;;18.20;99.90;;;;;;5035067;28;20055;-59
2023/09/09 04:50:41;;;;;;;14.05;12.55;;;18.30;99.90;;;;;;5035149;28;20112;-59
2023/09/09 04:53:07;;;;;;;16.15;11.98;;;18.30;99.90;;;;;;5053357;28;20120;-60
2023/09/09 04:55:32;;;;;;;;;;;18.30;99.90;;;;;;5077032;28;20099;-59
2023/09/09 04:57:58;;;;;;;14.45;12.10;;;18.40;99.90;;;;;;5077118;28;19904;-60
2023/09/09 05:00:23;;;;;;;16.38;12.48;;;18.40;99.90;;;;;;5073397;28;20067;-56
2023/09/09 05:02:49;;;;;;;13.68;12.10;;;18.40;99.90;;;;;;5072881;28;20029;-60
2023/09/09 05:05:14;;;;;;;15.02;12.40;;;18.30;99.90;;;;;;5072746;28;20081;-57
2023/09/09 05:07:40;;;;;;;13.02;11.60;;;18.40;99.90;;;;;;5072694;28;20089;-56
2023/09/09 05:10:06;;;;;;;16.38;12.57;;;18.40;99.90;;;;;;5072599;28;20028;-59
2023/09/09 05:12:32;;;;;;;14.38;12.20;;;18.30;99.90;;;;;;5072949;28;20044;-60
2023/09/09 05:14:58;;;;;;;13.68;12.27;;;18.40;99.90;;;;;;5072714;28;20074;-56
2023/09/09 05:17:24;;;;;;;14.43;12.20;;;18.40;99.90;;;;;;5072893;28;20100;-60
2023/09/09 05:19:50;;;;;;;15.05;12.63;;;18.50;99.90;;;;;;5072867;28;20024;-60
2023/09/09 05:22:16;;;;;;;15.35;12.43;;;18.50;99.90;;;;;;5072742;28;20542;-59
2023/09/09 05:24:42;;;;;;;16.10;12.95;;;18.50;99.90;;;;;;5059751;28;20064;-59
2023/09/09 05:27:07;;;;;;;14.88;12.50;;;18.60;99.90;;;;;;5052443;28;20029;-60
2023/09/09 05:29:33;;;;;;;14.07;12.55;;;18.60;99.90;;;;;;5052467;28;20047;-59
2023/09/09 05:31:58;;;;;;;13.45;12.05;;;18.60;99.90;;;;;;5052449;28;20036;-58
2023/09/09 05:34:24;;;;;;;13.65;11.90;;;18.70;99.90;;;;;;5052625;28;20025;-58
2023/09/09 05:36:49;;;;;;;15.88;12.57;;;18.70;99.90;;;;;;5052536;28;20053;-59
2023/09/09 05:39:16;;;;;;;14.90;12.68;;;18.70;99.90;;;;;;5034428;28;20095;-59
2023/09/09 05:41:41;;;;;;;15.02;12.73;;;18.70;99.90;;;;;;5034673;28;20021;-58
2023/09/09 05:44:07;;;;;;;15.32;11.82;;;18.70;99.90;;;;;;5052455;28;20025;-59
2023/09/09 05:46:32;;;;;;;13.48;12.07;;;18.80;99.90;;;;;;5034667;28;20484;-60
2023/09/09 05:48:58;;;;;;;14.00;12.45;;;18.80;99.90;;;;;;5052716;28;20388;-61
2023/09/09 05:51:23;;;;;;;16.58;13.13;;;18.90;99.90;;;;;;5054437;28;20041;-60
2023/09/09 05:53:51;;;;;;;14.30;12.70;;;18.90;99.90;;;;;;5061251;28;20041;-57
2023/09/09 05:56:16;;;;;;;14.68;12.18;;;19.00;99.90;;;;;;5075999;28;20048;-58
2023/09/09 05:58:42;;;;;;;18.30;13.57;;;19.00;99.90;;;;;;5076046;28;20467;-60
2023/09/09 06:01:07;;;;;;;15.05;12.63;;;19.00;99.90;;;;;;5076096;28;20471;-60
2023/09/09 06:03:35;;;;;;;15.07;11.82;;;19.00;99.90;;;;;;5076008;28;20471;-61
2023/09/09 06:06:01;;;;;;;16.42;12.40;;;19.10;99.90;;;;;;5075959;28;20032;-60
2023/09/09 06:08:27;;;;;;;15.43;11.90;;;19.10;99.90;;;;;;5076146;28;20024;-60
2023/09/09 06:10:52;;;;;;;16.35;11.95;;;19.20;99.90;;;;;;5071454;28;20029;-60
2023/09/09 06:13:18;;;;;;;15.50;12.43;;;19.10;99.90;;;;;;5055700;28;20037;-59
2023/09/09 06:15:43;;;;;;;14.27;12.88;;;19.10;99.90;;;;;;5055752;28;20025;-60
2023/09/09 06:18:09;;;;;;;16.70;12.00;;;19.10;99.90;;;;;;5056170;28;20591;-59
2023/09/09 06:20:34;;;;;;;21.42;12.05;;;19.10;99.90;;;;;;5054830;28;20029;-60
2023/09/09 06:23:00;;;;;;;14.80;12.27;;;19.20;99.90;;;;;;5052622;28;20471;-58
2023/09/09 06:25:25;;;;;;;15.90;11.75;;;19.30;99.90;;;;;;5046214;28;20087;-60
2023/09/09 06:27:51;;;;;;;19.20;11.63;;;19.40;99.90;;;;;;5035531;28;20037;-60
2023/09/09 06:30:16;;;;;;;18.35;12.98;;;19.50;99.90;;;;;;5045036;28;20403;-60
2023/09/09 06:32:42;;;;;;;16.17;12.73;;;19.60;99.90;;;;;;5047997;28;20040;-59
2023/09/09 06:35:08;;;;;;;16.15;12.63;;;19.60;99.90;;;;;;5044901;28;20029;-59
2023/09/09 06:37:33;;;;;;;14.43;13.02;;;19.60;99.90;;;;;;5049908;28;20017;-58
2023/09/09 06:39:59;;;;;;;19.40;13.80;;;19.70;99.90;;;;;;5053260;28;20029;-59
2023/09/09 06:42:24;;;;;;;14.98;12.82;;;19.60;99.90;;;;;;5055031;28;20035;-59
2023/09/09 06:44:50;;;;;;;16.85;12.88;;;19.60;99.90;;;;;;5052330;28;20407;-56
2023/09/09 06:47:15;;;;;;;16.73;12.85;;;19.60;99.90;;;;;;5049145;28;20506;-59
2023/09/09 06:49:41;;;;;;;15.07;12.85;;;19.70;99.90;;;;;;5044204;28;20090;-57
2023/09/09 06:52:06;;;;;;;19.15;14.75;;;19.90;99.90;;;;;;5045535;28;20075;-54
2023/09/09 06:54:32;;;;;;;16.35;13.25;;;20.10;99.90;;;;;;5063405;28;20407;-58
2023/09/09 06:56:57;;;;;;;15.65;13.55;;;20.00;99.90;;;;;;5065089;28;20102;-57
2023/09/09 06:59:23;;;;;;;14.50;13.00;;;20.20;99.90;;;;;;5051084;28;20021;-58
2023/09/09 07:01:49;;;;;;;15.65;13.98;;;20.30;99.90;;;;;;5050494;28;20028;-60
2023/09/09 07:04:14;;;;;;;17.35;14.02;;;20.20;99.90;;;;;;5044482;28;20041;-60
2023/09/09 07:06:41;;;;;;;18.10;13.00;;;20.40;99.90;;;;;;5043447;28;20487;-61
2023/09/09 07:09:07;;;;;;;15.18;13.10;;;20.50;99.90;;;;;;5043077;28;20502;-59
2023/09/09 07:11:33;;;;;;;17.17;13.65;;;20.40;99.90;;;;;;5053554;28;20479;-60
2023/09/09 07:13:58;;;;;;;18.08;15.85;;;20.40;99.90;;;;;;5054755;28;20151;-59
2023/09/09 07:16:24;;;;;;;16.77;14.80;;;20.80;99.90;;;;;;5054509;28;20053;-60
2023/09/09 07:18:49;;;;;;;18.73;13.68;;;20.80;99.90;;;;;;5055680;28;20024;-59
2023/09/09 07:21:15;;;;;;;16.35;14.63;;;21.00;99.90;;;;;;5054577;28;20079;-60
2023/09/09 07:23:40;;;;;;;17.02;15.23;;;21.10;99.90;;;;;;5058890;28;20363;-60
2023/09/09 07:26:06;;;;;;;16.67;14.63;;;21.10;99.90;;;;;;5074368;28;20031;-60
2023/09/09 07:28:32;;;;;;;16.92;15.13;;;21.10;99.90;;;;;;5074387;28;20463;-61
2023/09/09 07:31:02;;;;;;;17.98;15.75;;;21.20;99.90;;;;;;5038060;28;20032;-59
2023/09/09 07:33:27;;;;;;;18.80;15.05;;;21.20;99.90;;;;;;5049642;28;20028;-59
2023/09/09 07:35:53;;;;;;;18.20;15.40;;;21.20;99.90;;;;;;5048825;28;20048;-61
2023/09/09 07:38:19;;;;;;;18.25;14.90;;;21.30;99.90;;;;;;5049955;28;20026;-61
2023/09/09 07:40:45;;;;;;;;;;;21.30;99.90;;;;;;5050501;28;20036;-62
2023/09/09 07:43:10;;;;;;;17.30;15.13;;;21.40;99.90;;;;;;5046268;28;19910;-60
2023/09/09 07:45:36;;;;;;;24.65;16.30;;;21.40;99.90;;;;;;5048052;28;20045;-59
2023/09/09 07:48:01;;;;;;;16.20;14.50;;;21.40;99.90;;;;;;5058404;28;20051;-61
2023/09/09 07:50:27;;;;;;;18.77;14.82;;;21.50;99.90;;;;;;5051987;28;20052;-61
2023/09/09 07:52:52;;;;;;;17.10;14.77;;;21.70;99.90;;;;;;5051904;28;20028;-60
2023/09/09 07:55:18;;;;;;;18.30;15.10;;;21.90;99.90;;;;;;5054988;28;20032;-61
2023/09/09 07:57:43;;;;;;;17.50;14.00;;;21.80;99.90;;;;;;5067405;28;20124;-61
2023/09/09 08:00:09;;;;;;;18.10;14.18;;;21.70;99.90;;;;;;5041740;28;20013;-61
2023/09/09 08:02:38;;;;;;;20.65;14.13;;;21.80;99.90;;;;;;5045300;28;20506;-63
2023/09/09 08:05:06;;;;;;;18.58;14.43;;;21.90;99.90;;;;;;5054892;28;20033;-61
2023/09/09 08:07:32;;;;;;;21.00;14.52;;;22.10;99.90;;;;;;5053694;28;20017;-61
2023/09/09 08:09:58;;;;;;;14.05;12.55;;;22.20;99.90;;;;;;5052641;28;20029;-61
2023/09/09 08:12:23;;;;;;;17.50;13.90;;;22.30;99.90;;;;;;5054586;28;20033;-61
2023/09/09 08:15:06;;;;;;;15.57;13.93;;;22.40;99.90;;;;;;5057323;28;20024;-59
2023/09/09 08:17:31;;;;;;;15.35;12.90;;;22.50;99.90;;;;;;5051540;28;20414;-61
2023/09/09 08:19:57;;;;;;;14.63;13.07;;;22.60;99.90;;;;;;5058208;28;20024;-62
2023/09/09 08:22:22;;;;;;;;;;;22.70;99.90;;;;;;5055045;28;20029;-63
2023/09/09 08:24:48;;;;;;;22.35;14.50;;;22.90;99.90;;;;;;5054523;28;19905;-60
2023/09/09 08:27:14;;;;;;;17.85;14.20;;;23.00;99.90;;;;;;5058474;28;20031;-60
2023/09/09 08:29:39;;;;;;;16.80;14.65;;;22.90;99.90;;;;;;5052584;28;20037;-60
2023/09/09 08:32:05;;;;;;;17.42;14.10;;;23.00;99.90;;;;;;5053642;28;20033;-60
2023/09/09 08:34:32;;;;;;;16.75;14.95;;;23.10;99.90;;;;;;5054734;28;20129;-60
2023/09/09 08:36:57;;;;;;;16.13;13.80;;;23.30;99.90;;;;;;5057505;28;20103;-56
2023/09/09 08:39:24;;;;;;;17.70;13.27;;;23.40;99.90;;;;;;5061278;28;20036;-59
2023/09/09 08:41:57;;;;;;;16.13;13.20;;;23.60;99.90;;;;;;5063434;28;20032;-59
2023/09/09 08:44:37;;;;;;;15.73;12.32;;;24.00;99.90;;;;;;5049753;28;20021;-61
2023/09/09 08:47:03;;;;;;;17.05;13.07;;;24.60;99.90;;;;;;5037425;28;20074;-61
2023/09/09 08:49:30;;;;;;;;;;;26.40;99.90;;;;;;5032870;28;20029;-59
2023/09/09 08:52:04;;;;;;;13.10;11.13;;;29.40;99.90;;;;;;5052827;28;19931;-62
2023/09/09 08:54:30;;;;;;;13.27;10.80;;;32.50;98.20;;;;;;5052343;28;20376;-62
2023/09/09 08:56:57;;;;;;;12.52;10.13;;;34.70;94.20;;;;;;5053187;28;20029;-62
2023/09/09 08:59:24;;;;;;;11.80;9.75;;;35.80;91.60;;;;;;5065555;28;20020;-61
2023/09/09 09:01:51;;;;;;;11.55;10.35;;;36.80;90.20;;;;;;5071321;28;20028;-61
2023/09/09 09:04:18;;;;;;;10.98;9.55;;;36.60;87.60;;;;;;5069891;28;20028;-61
2023/09/09 09:06:47;;;;;;;14.45;10.43;;;35.80;89.50;;;;;;5052467;28;20032;-62
2023/09/09 09:09:16;;;;;;;11.60;9.65;;;37.50;86.30;;;;;;5053261;28;20032;-62
2023/09/09 09:11:42;;;;;;;12.27;11.00;;;37.80;85.00;;;;;;5052807;28;20033;-62
2023/09/09 09:14:10;;;;;;;14.05;10.23;;;38.70;83.60;;;;;;5053026;28;20426;-62
2023/09/09 09:16:39;;;;;;;13.88;9.80;;;40.50;80.10;;;;;;5053261;28;20052;-63
2023/09/09 09:19:04;;;;;;;10.95;8.75;;;41.30;76.80;;;;;;5053005;28;20033;-61
2023/09/09 09:21:35;;;;;;;10.27;8.48;;;39.40;76.90;;;;;;5052432;28;20048;-63
2023/09/09 09:24:01;;;;;;;11.80;8.93;;;40.30;76.00;;;;;;5052712;28;20049;-62
2023/09/09 09:26:29;;;;;;;10.23;9.23;;;38.10;77.20;;;;;;5055986;28;20040;-61
2023/09/09 09:28:55;;;;;;;11.68;9.30;;;38.50;77.80;;;;;;5057545;28;20021;-64
2023/09/09 09:31:25;;;;;;;9.68;8.52;;;39.40;76.90;;;;;;5039140;28;20085;-64
2023/09/09 09:33:51;;;;;;;10.68;9.15;;;39.80;75.70;;;;;;5056539;28;20572;-63
2023/09/09 09:36:19;;;;;;;13.32;9.05;;;41.30;73.60;;;;;;5056638;28;20108;-62
2023/09/09 09:38:45;;;;;;;11.05;8.60;;;42.30;72.30;;;;;;5056919;28;20021;-63
2023/09/09 09:41:11;;;;;;;10.52;9.55;;;43.10;71.00;;;;;;5056262;28;20035;-62
2023/09/09 09:43:36;;;;;;;10.45;8.48;;;43.90;68.80;;;;;;5056167;28;20032;-62
2023/09/09 09:46:15;;;;;;;9.18;8.27;;;43.60;67.90;;;;;;5056528;28;20448;-62
2023/09/09 09:48:41;;;;;;;8.77;7.95;;;41.60;69.70;;;;;;5056837;28;20033;-62
2023/09/09 09:51:07;;;;;;;9.93;7.60;;;41.00;69.20;;;;;;5056323;28;20111;-62
2023/09/09 09:53:57;;;;;;;9.93;7.82;;;41.60;69.60;;;;;;5038286;28;20040;-62
2023/09/09 09:56:22;;;;;;;8.48;7.25;;;42.40;68.70;;;;;;5055528;28;20056;-61
2023/09/09 09:58:50;;;;;;;8.98;8.07;;;43.10;67.50;;;;;;5055766;28;20021;-63
2023/09/09 10:01:15;;;;;;;8.75;7.82;;;43.30;65.80;;;;;;5055760;28;20044;-62
2023/09/09 10:03:55;;;;;;;8.75;7.13;;;41.40;67.30;;;;;;5055661;28;20114;-62
2023/09/09 10:06:26;;;;;;;8.80;7.55;;;40.30;69.30;;;;;;5037920;28;20071;-62
2023/09/09 10:09:06;;;;;;;9.80;7.85;;;41.30;68.80;;;;;;5055913;28;20025;-62
2023/09/09 10:11:39;;;;;;;9.10;8.25;;;42.00;67.50;;;;;;5055216;28;20475;-62
2023/09/09 10:14:14;;;;;;;9.10;7.75;;;41.80;66.80;;;;;;5055911;28;20471;-62
2023/09/09 10:16:45;;;;;;;8.32;7.50;;;40.80;68.40;;;;;;5055740;28;20025;-62
2023/09/09 10:19:12;;;;;;;10.55;8.82;;;39.10;70.50;;;;;;5055571;28;20032;-62
2023/09/09 10:21:39;;;;;;;10.25;8.07;;;40.40;69.40;;;;;;5055537;28;20021;-63
2023/09/09 10:24:07;;;;;;;8.77;7.90;;;41.50;67.70;;;;;;5055603;28;20025;-62
2023/09/09 10:26:36;;;;;;;8.43;7.63;;;42.10;66.90;;;;;;5055150;28;20116;-62
2023/09/09 10:29:03;;;;;;;9.63;7.93;;;42.30;66.30;;;;;;5055399;28;20060;-62
2023/09/09 10:31:30;;;;;;;9.20;8.20;;;42.70;65.70;;;;;;5055610;28;20032;-61
2023/09/09 10:33:57;;;;;;;11.60;7.45;;;42.00;66.40;;;;;;5055566;28;20025;-62
2023/09/09 10:36:24;;;;;;;8.85;7.80;;;42.20;66.60;;;;;;5054245;28;20078;-62
2023/09/09 10:38:54;;;;;;;9.25;8.10;;;42.60;65.70;;;;;;5055081;28;20086;-62
2023/09/09 10:41:20;;;;;;;9.55;8.55;;;43.20;64.70;;;;;;5054769;28;20387;-62
2023/09/09 10:43:45;;;;;;;9.20;7.65;;;43.50;64.40;;;;;;5055604;28;20029;-62
2023/09/09 10:46:11;;;;;;;9.13;7.30;;;43.50;63.80;;;;;;5055037;28;20052;-62
2023/09/09 10:48:36;;;;;;;8.32;7.53;;;43.30;63.80;;;;;;5055266;28;20029;-61
2023/09/09 10:51:06;;;;;;;7.75;6.82;;;42.70;62.70;;;;;;5054908;28;20471;-62
2023/09/09 10:53:32;;;;;;;8.30;7.50;;;40.80;64.80;;;;;;5054827;28;20053;-62
2023/09/09 10:56:11;;;;;;;10.50;7.10;;;40.00;66.80;;;;;;5054775;28;20029;-62
2023/09/09 10:58:39;;;;;;;7.78;7.05;;;39.80;67.00;;;;;;5054027;28;20107;-62
2023/09/09 11:01:09;;;;;;;9.15;8.25;;;38.50;68.50;;;;;;5055199;28;20037;-62
2023/09/09 11:03:41;;;;;;;10.63;8.02;;;38.60;68.50;;;;;;5036529;28;20107;-62
2023/09/09 11:06:19;;;;;;;10.38;7.88;;;38.30;69.40;;;;;;5054970;28;20032;-62
2023/09/09 11:08:46;;;;;;;8.23;7.38;;;36.60;70.80;;;;;;5036822;28;20047;-62
2023/09/09 11:11:23;;;;;;;9.98;7.72;;;35.30;72.70;;;;;;5054563;28;20379;-62
2023/09/09 11:14:10;;;;;;;8.68;7.30;;;34.20;74.00;;;;;;5054590;28;20482;-62
2023/09/09 11:16:41;;;;;;;10.48;8.07;;;33.30;76.20;;;;;;5053893;28;20453;-61
2023/09/09 11:19:07;;;;;;;9.80;7.95;;;31.70;79.20;;;;;;5054277;28;20017;-62
2023/09/09 11:21:54;;;;;;;11.00;8.07;;;31.30;80.10;;;;;;5054338;28;20020;-60
2023/09/09 11:24:20;;;;;;;10.25;7.38;;;31.10;81.00;;;;;;5053806;28;20025;-62
2023/09/09 11:26:51;;;;;;;9.23;6.72;;;30.80;80.20;;;;;;5053803;28;20028;-62
2023/09/09 11:29:18;;;;;;;8.55;7.68;;;30.80;81.20;;;;;;5054697;28;20052;-62
2023/09/09 11:31:44;;;;;;;10.18;7.30;;;30.60;81.80;;;;;;5054585;28;20048;-63
2023/09/09 11:34:10;;;;;;;11.98;7.05;;;30.40;81.80;;;;;;5054276;28;20049;-62
2023/09/09 11:36:35;;;;;;;7.82;6.55;;;30.10;81.70;;;;;;5054201;28;20060;-61
2023/09/09 11:39:01;;;;;;;9.50;6.88;;;30.00;82.20;;;;;;5036219;28;20043;-59
2023/09/09 11:41:31;;;;;;;8.65;6.60;;;29.90;83.30;;;;;;5053871;28;20096;-64
2023/09/09 11:43:57;;;;;;;7.47;6.72;;;29.90;83.60;;;;;;5053921;28;20013;-61
2023/09/09 11:46:25;;;;;;;9.38;7.22;;;29.90;82.40;;;;;;5053867;28;20471;-61
2023/09/09 11:48:51;;;;;;;9.55;7.05;;;29.90;82.80;;;;;;5052900;28;20029;-62
2023/09/09 11:51:18;;;;;;;10.50;6.07;;;29.90;83.20;;;;;;5053649;28;20025;-62
2023/09/09 11:53:45;;;;;;;6.35;5.75;;;29.70;82.90;;;;;;5053594;28;20039;-62
2023/09/09 11:56:13;;;;;;;10.10;6.50;;;29.80;82.90;;;;;;5053442;28;20032;-62
2023/09/09 11:58:40;;;;;;;10.07;6.80;;;29.80;82.10;;;;;;5053513;28;20464;-61
2023/09/09 12:01:05;;;;;;;10.07;5.60;;;29.90;82.40;;;;;;5053846;28;20107;-61
2023/09/09 12:03:31;;;;;;;7.95;5.70;;;30.00;82.20;;;;;;5053608;28;20591;-62
2023/09/09 12:05:58;;;;;;;8.68;6.10;;;30.00;81.60;;;;;;5036364;28;20021;-62
2023/09/09 12:08:25;;;;;;;9.18;5.93;;;29.90;81.50;;;;;;5053485;28;20048;-62
2023/09/09 12:10:51;;;;;;;10.73;6.22;;;29.90;81.60;;;;;;5053247;28;20021;-62
2023/09/09 12:13:17;;;;;;;8.18;5.78;;;30.00;81.50;;;;;;5053436;28;20029;-61
2023/09/09 12:15:43;;;;;;;7.10;6.07;;;30.00;81.80;;;;;;5053522;28;20095;-62
2023/09/09 12:18:13;;;;;;;6.32;5.68;;;30.00;82.20;;;;;;5053385;28;20061;-62
2023/09/09 12:21:06;;;;;;;7.45;6.10;;;30.00;81.20;;;;;;5053027;28;20025;-62
2023/09/09 12:23:36;;;;;;;9.18;5.97;;;30.10;82.20;;;;;;5053383;28;20025;-61
2023/09/09 12:26:16;;;;;;;8.95;6.47;;;30.00;82.30;;;;;;5053059;28;20386;-61
2023/09/09 12:28:43;;;;;;;8.60;5.70;;;30.00;82.40;;;;;;5052975;28;20482;-61
2023/09/09 12:31:10;;;;;;;8.85;5.50;;;30.00;80.80;;;;;;5053566;28;20404;-61